Time;durP1;ratioP1;P1;durP2;ratioP2;P2;SDS_P1;SDS_P2;PMS_P1;PMS_P2;Temp;Humidity;BMP_temperature;BMP_pressure;BME280_temperature;BME280_humidity;BME280_pressure;Samples;Min_cycle;Max_cycle;Signal;HPM_P1;HPM_P2
2022/06/30 00:04:21;;;;;;;;;;;;;;;;;;;;;
2022/06/30 00:17:08;;;;;;;6.50;6.00;;;;;;;24.65;59.36;100023.28;1583245;120;25952;-77
2022/06/30 00:20:46;;;;;;;8.55;6.78;;;;;;;24.61;59.42;100014.55;1618720;121;25888;-78
2022/06/30 00:24:09;;;;;;;9.00;6.85;;;;;;;24.57;59.51;100016.04;1617034;119;25988;-77
2022/06/30 00:27:54;;;;;;;7.40;6.80;;;;;;;24.56;59.64;100022.31;1607533;120;26129;-76
2022/06/30 00:31:59;;;;;;;6.87;6.28;;;;;;;24.56;59.81;100015.17;1626753;117;26255;-77
2022/06/30 00:35:26;;;;;;;7.50;6.90;;;;;;;24.54;59.87;100016.19;1662208;116;25964;-76
2022/06/30 00:38:53;;;;;;;7.78;6.42;;;;;;;24.44;60.13;100017.88;1692253;115;26026;-77
2022/06/30 00:42:23;;;;;;;7.85;6.42;;;;;;;24.43;60.27;100011.27;1707078;113;25911;-78
2022/06/30 00:46:01;;;;;;;11.88;7.03;;;;;;;24.44;60.33;100013.02;1708452;114;26027;-76
2022/06/30 00:49:38;;;;;;;8.03;6.83;;;;;;;24.39;60.50;100006.95;1702134;115;26120;-78
2022/06/30 00:53:02;;;;;;;7.90;7.20;;;;;;;24.36;60.72;99998.61;1713283;113;26058;-76
2022/06/30 00:56:38;;;;;;;7.47;6.42;;;;;;;24.36;60.72;99998.61;1675914;114;25955;-76
2022/06/30 01:00:08;;;;;;;8.48;6.28;;;;;;;24.31;60.83;99999.27;1721825;113;27562;-77
2022/06/30 01:03:51;;;;;;;11.22;6.85;;;;;;;24.32;60.88;99990.34;1725231;111;25952;-78
2022/06/30 01:07:29;;;;;;;7.78;7.12;;;;;;;24.33;60.87;99997.40;1724834;112;25991;-77
2022/06/30 01:14:49;;;;;;;8.35;6.42;;;;;;;24.23;60.89;99993.36;1692044;110;25886;-82
2022/06/30 01:18:27;;;;;;;7.60;6.92;;;;;;;24.20;61.08;99997.50;1704841;113;25837;-76
2022/06/30 01:22:15;;;;;;;7.30;6.80;;;;;;;24.15;61.21;99995.46;1747958;111;25999;-76
2022/06/30 01:25:53;;;;;;;8.28;6.53;;;;;;;24.14;61.32;99993.73;1750603;109;25817;-78
2022/06/30 01:29:34;;;;;;;8.93;6.45;;;;;;;24.14;61.28;99995.93;1828568;106;26047;-76
2022/06/30 01:33:02;;;;;;;9.60;6.35;;;;;;;24.07;61.57;99992.23;1830628;106;25798;-82
2022/06/30 01:36:32;;;;;;;6.30;5.70;;;;;;;24.06;61.72;99994.47;1824550;106;26242;-80
2022/06/30 01:40:01;;;;;;;7.33;6.42;;;;;;;24.06;61.81;99994.47;1830351;106;25852;-79
2022/06/30 01:43:41;;;;;;;12.28;6.40;;;;;;;24.10;61.87;99996.08;1832533;106;25817;-76
2022/06/30 01:47:18;;;;;;;8.88;6.75;;;;;;;24.11;61.66;99987.19;1843678;105;25958;-78
2022/06/30 01:50:42;;;;;;;10.13;6.08;;;;;;;23.94;61.93;99979.84;1816468;105;25859;-77
2022/06/30 01:54:17;;;;;;;14.07;6.55;;;;;;;23.91;62.24;99978.63;1813413;107;26672;-81
2022/06/30 01:57:46;;;;;;;7.45;6.58;;;;;;;23.92;62.17;99983.02;1746347;109;26023;-77
2022/06/30 02:01:18;;;;;;;7.65;6.20;;;;;;;23.91;62.31;99979.48;1744701;112;25740;-76
2022/06/30 02:04:53;;;;;;;9.20;6.20;;;;;;;23.92;62.27;99967.91;1741965;108;26052;-75
2022/06/30 02:08:20;;;;;;;7.95;6.12;;;;;;;23.87;62.43;99973.02;1708176;113;25478;-77
2022/06/30 02:12:45;;;;;;;12.80;6.35;;;;;;;23.86;62.52;99973.48;1697195;114;26347;-81
2022/06/30 02:15:36;;;;;;;7.55;6.92;;;;;;;23.82;62.59;99966.98;1694730;113;26021;-78
2022/06/30 02:18:59;;;;;;;10.80;6.45;;;;;;;23.80;62.60;99979.91;1698696;115;26514;-77
2022/06/30 02:22:45;;;;;;;7.65;6.12;;;;;;;23.73;62.66;99973.54;1730708;111;25975;-79
2022/06/30 02:26:14;;;;;;;8.35;6.47;;;;;;;23.73;62.78;99976.20;1728556;112;25935;-78
2022/06/30 02:29:34;;;;;;;8.65;5.97;;;;;;;23.68;62.87;99971.50;1713882;112;26071;-77
2022/06/30 02:33:05;;;;;;;7.87;5.65;;;;;;;23.72;62.98;99968.65;1736241;112;25925;-77
2022/06/30 02:36:37;;;;;;;9.83;6.05;;;;;;;23.74;62.85;99958.83;1707092;112;25973;-80
2022/06/30 02:40:14;;;;;;;9.13;6.60;;;;;;;23.76;62.88;99963.64;1700101;114;25986;-76
2022/06/30 02:47:16;;;;;;;7.37;6.75;;;;;;;23.72;62.95;99971.78;1714956;112;25933;-76
2022/06/30 02:51:09;;;;;;;;;;;;;;;;;;;;;
2022/06/30 02:54:54;;;;;;;9.78;6.78;;;;;;;23.85;62.75;99969.06;1670691;116;25955;-77
2022/06/30 02:58:24;;;;;;;12.23;10.98;;;;;;;23.89;62.70;99975.14;1666214;116;26054;-76
2022/06/30 03:02:00;;;;;;;10.72;7.90;;;;;;;23.88;62.55;99978.73;1633948;118;25957;-76
2022/06/30 03:05:52;;;;;;;11.10;6.62;;;;;;;23.89;62.57;99971.15;1685544;114;25974;-79
2022/06/30 03:09:12;;;;;;;11.43;5.97;;;;;;;23.84;62.65;99966.48;1718851;114;26289;-76
2022/06/30 03:12:39;;;;;;;6.92;6.08;;;;;;;23.89;62.67;99973.34;1716231;113;25842;-79
2022/06/30 03:16:15;;;;;;;10.05;5.90;;;;;;;23.97;62.52;99987.25;1742324;104;26007;-76
2022/06/30 03:19:42;;;;;;;6.20;5.60;;;;;;;24.01;62.51;99989.34;1777515;108;25883;-78
2022/06/30 03:27:02;;;;;;;14.25;9.48;;;;;;;24.14;62.29;99995.93;1785802;109;25974;-73
2022/06/30 03:30:26;;;;;;;15.32;6.83;;;;;;;24.13;62.19;99994.64;1815679;107;25963;-74
2022/06/30 03:33:54;;;;;;;12.53;8.85;;;;;;;24.10;62.22;99995.65;1812418;106;26451;-73
2022/06/30 03:38:04;;;;;;;7.40;6.78;;;;;;;24.11;62.25;100000.04;1805297;107;25721;-72
2022/06/30 03:41:33;;;;;;;8.18;5.90;;;;;;;24.20;62.06;99999.70;1794135;107;25885;-72
2022/06/30 03:44:54;;;;;;;10.03;6.37;;;;;;;24.29;61.92;100006.45;1787824;109;25939;-72
2022/06/30 03:48:20;;;;;;;13.70;7.67;;;;;;;24.33;61.78;100008.52;1822696;106;25859;-74
2022/06/30 03:51:44;;;;;;;13.65;8.60;;;;;;;24.35;61.76;100009.34;1864415;104;25810;-74
2022/06/30 03:55:22;;;;;;;9.73;8.73;;;;;;;24.37;61.72;100015.48;1858083;105;25829;-75
2022/06/30 03:58:46;;;;;;;8.55;5.72;;;;;;;24.44;61.62;100017.02;1872565;104;25723;-73
2022/06/30 04:02:17;;;;;;;12.80;9.58;;;;;;;24.46;61.52;100020.47;1869650;104;25785;-73
2022/06/30 04:05:46;;;;;;;13.18;7.60;;;;;;;24.48;61.40;100014.63;1831266;105;25853;-74
2022/06/30 04:09:09;;;;;;;7.60;6.33;;;;;;;24.40;61.46;100009.61;1832424;106;25956;-73
2022/06/30 04:12:41;;;;;;;8.08;6.37;;;;;;;24.34;61.62;100016.47;1820552;107;25802;-73
2022/06/30 04:16:25;;;;;;;7.55;6.70;;;;;;;24.45;61.63;100020.94;1833247;106;25933;-74
2022/06/30 04:19:52;;;;;;;9.20;6.12;;;;;;;24.48;61.64;100010.16;1835095;106;25910;-74
2022/06/30 04:23:13;;;;;;;9.75;6.67;;;;;;;24.56;61.51;100008.98;1839865;105;25870;-77
2022/06/30 04:26:44;;;;;;;8.68;5.90;;;;;;;24.59;61.41;100004.87;1859312;104;25860;-74
2022/06/30 04:34:38;;;;;;;13.08;6.10;;;;;;;24.82;61.22;100007.94;1882841;104;25684;-75
2022/06/30 04:38:07;;;;;;;7.70;6.90;;;;;;;24.91;61.12;100009.77;1880983;104;25859;-75
2022/06/30 04:41:39;;;;;;;8.73;6.35;;;;;;;25.04;60.91;100004.79;1903628;100;26093;-80
2022/06/30 04:45:18;;;;;;;8.90;7.10;;;;;;;25.13;60.71;100007.08;1918830;102;26501;-79
2022/06/30 04:48:49;;;;;;;10.65;7.10;;;;;;;25.08;60.55;100025.53;1866165;104;25900;-79
2022/06/30 04:52:09;;;;;;;8.75;6.78;;;;;;;25.06;60.83;100026.05;1899617;103;26238;-80
2022/06/30 04:55:56;;;;;;;8.15;6.85;;;;;;;25.09;60.81;100024.59;1899188;102;25831;-80
2022/06/30 04:59:40;;;;;;;;;;;;;;;;;;;;;
2022/06/30 05:03:16;;;;;;;10.28;7.35;;;;;;;25.24;60.66;100014.63;1898116;102;26997;-80
2022/06/30 05:06:38;;;;;;;7.70;7.00;;;;;;;25.25;60.45;100023.05;1764485;110;25867;-80
2022/06/30 05:10:04;;;;;;;10.93;6.30;;;;;;;25.29;60.63;100027.31;1755196;111;25940;-81
2022/06/30 05:13:57;;;;;;;;;;;;;;;;;;;;;
2022/06/30 05:17:33;;;;;;;9.23;8.18;;;;;;;25.54;60.24;100028.91;1777940;109;26157;-81
2022/06/30 05:21:09;;;;;;;11.60;6.75;;;;;;;25.56;60.22;100032.39;1742793;111;26018;-78
2022/06/30 05:28:46;;;;;;;;;;;;;;;;;;;;;
2022/06/30 05:32:37;;;;;;;7.30;6.45;;;;;;;25.84;59.94;100038.27;1732221;112;25966;-81
2022/06/30 05:36:11;;;;;;;13.10;7.45;;;;;;;25.90;59.61;100039.33;1716072;113;25902;-80
2022/06/30 05:39:37;;;;;;;8.68;7.90;;;;;;;25.89;59.63;100038.94;1731720;110;26013;-81
2022/06/30 05:43:31;;;;;;;7.47;6.72;;;;;;;26.04;59.55;100041.84;1754342;111;26358;-80
2022/06/30 05:50:59;;;;;;;9.15;6.87;;;;;;;26.26;59.11;100042.59;1718961;112;26728;-79
2022/06/30 05:54:24;;;;;;;8.43;6.65;;;;;;;26.41;58.92;100053.50;1749444;107;25902;-80
2022/06/30 05:58:19;;;;;;;9.75;6.90;;;;;;;26.56;58.72;100049.67;1806919;107;26059;-81
2022/06/30 06:02:07;;;;;;;10.15;6.65;;;;;;;26.73;58.46;100046.19;1810763;106;25617;-80
2022/06/30 06:05:44;;;;;;;8.55;7.20;;;;;;;26.88;58.15;100057.93;1827891;106;26281;-81
2022/06/30 06:09:40;;;;;;;10.65;7.87;;;;;;;26.95;57.96;100054.48;1831767;106;26006;-82
2022/06/30 06:13:18;;;;;;;7.40;6.08;;;;;;;27.21;57.62;100051.89;1800264;108;26076;-81
2022/06/30 06:17:08;;;;;;;;;;;;;;;;;;;;;
2022/06/30 06:21:27;;;;;;;8.13;7.00;;;;;;;27.54;56.64;100055.52;1787544;107;26690;-79
2022/06/30 06:37:06;;;;;;;;;;;;;;;;;;;;;
2022/06/30 06:42:19;;;;;;;;;;;;;;;;;;;;;
2022/06/30 06:46:30;;;;;;;14.80;7.55;;;;;;;27.50;56.01;100048.56;1630990;115;26442;-80
2022/06/30 06:50:27;;;;;;;10.03;7.33;;;;;;;27.45;56.11;100052.44;1617117;120;25917;-80
2022/06/30 06:53:50;;;;;;;14.75;7.55;;;;;;;27.36;56.14;100044.39;1621690;119;26095;-82
2022/06/30 06:57:22;;;;;;;8.15;6.15;;;;;;;27.38;56.27;100040.32;1613159;119;25937;-80
2022/06/30 07:01:05;;;;;;;14.93;6.90;;;;;;;27.39;56.36;100046.06;1620995;119;25821;-80
2022/06/30 07:09:27;;;;;;;;;;;;;;;;;;;;;
2022/06/30 07:12:55;;;;;;;19.48;7.67;;;;;;;27.87;55.95;100050.68;1672381;113;25870;-83
2022/06/30 07:16:26;;;;;;;12.65;7.47;;;;;;;28.00;55.73;100050.41;1649794;117;26098;-80
2022/06/30 07:19:56;;;;;;;10.38;6.87;;;;;;;28.12;55.62;100048.91;1676206;115;25880;-81
2022/06/30 07:23:35;;;;;;;11.97;7.62;;;;;;;28.34;55.46;100044.55;1687269;115;26048;-82
2022/06/30 07:26:59;;;;;;;10.75;6.15;;;;;;;28.68;54.85;100048.05;1675751;115;26050;-81
2022/06/30 07:30:44;;;;;;;7.87;7.28;;;;;;;29.00;54.48;100051.63;1652621;117;26443;-82
2022/06/30 07:34:45;;;;;;;;;;;;;;;;;;;;;
2022/06/30 07:38:24;;;;;;;11.68;6.85;;;;;;;29.44;53.52;100055.33;1646866;118;26128;-81
2022/06/30 07:42:18;;;;;;;;;;;;;;;;;;;;;
2022/06/30 07:45:58;;;;;;;;;;;;;;;;;;;;;
2022/06/30 07:49:42;;;;;;;8.33;7.55;;;;;;;29.70;52.75;100087.34;1635953;117;25972;-82
2022/06/30 08:10:53;;;;;;;7.40;6.50;;;;;;;30.90;51.10;100093.70;1616132;120;26064;-80
2022/06/30 08:14:54;;;;;;;9.10;6.87;;;;;;;31.85;49.79;100103.48;1610063;121;26094;-80
2022/06/30 08:19:17;;;;;;;;;;;;;;;;;;;;;
2022/06/30 08:27:04;;;;;;;9.38;6.58;;;;;;;31.90;48.26;100109.95;1629690;116;26107;-80
2022/06/30 08:30:41;;;;;;;13.45;6.65;;;;;;;31.93;48.18;100110.59;1602145;120;25625;-80
2022/06/30 08:34:24;;;;;;;;;;;;;;;;;;;;;
2022/06/30 08:38:17;;;;;;;7.05;6.35;;;;;;;32.36;48.53;100114.28;1553623;124;25553;-81
2022/06/30 08:54:12;;;;;;;10.78;6.50;;;;;;;33.22;46.58;100097.26;1560827;123;26059;-82
2022/06/30 09:01:43;;;;;;;11.00;6.92;;;;;;;33.51;46.12;100076.62;1578834;122;25971;-82
2022/06/30 09:05:18;;;;;;;10.23;6.53;;;;;;;33.72;45.65;100082.23;1575089;122;26042;-84
2022/06/30 09:08:50;;;;;;;9.33;6.90;;;;;;;33.88;45.14;100081.37;1591709;121;26112;-84
2022/06/30 09:16:27;;;;;;;6.75;6.08;;;;;;;34.18;44.49;100069.15;1589483;122;25931;-83
2022/06/30 09:20:15;;;;;;;6.80;6.15;;;;;;;34.18;43.75;100067.80;1582556;121;26087;-84
2022/06/30 09:23:48;;;;;;;12.00;6.40;;;;;;;34.54;43.45;100072.98;1621183;119;26025;-84
2022/06/30 09:27:30;;;;;;;10.85;5.87;;;;;;;34.88;43.05;100067.98;1656385;116;26138;-84
2022/06/30 09:34:59;;;;;;;6.90;6.10;;;;;;;35.58;41.98;100072.08;1771151;108;25988;-83
2022/06/30 09:42:05;;;;;;;9.00;6.83;;;;;;;36.09;41.50;100059.91;1754131;110;26206;-84
2022/06/30 09:45:50;;;;;;;8.63;6.35;;;;;;;36.39;41.16;100057.67;1758954;109;25909;-85
2022/06/30 09:49:26;;;;;;;7.33;6.00;;;;;;;36.68;40.55;100050.63;1771736;108;25841;-86
2022/06/30 09:53:26;;;;;;;10.45;6.28;;;;;;;36.90;40.31;100048.16;1784554;108;25959;-84
2022/06/30 09:57:18;;;;;;;12.15;6.72;;;;;;;37.04;39.80;100040.98;1832770;106;26471;-84
2022/06/30 10:00:54;;;;;;;7.65;6.12;;;;;;;37.25;39.57;100047.12;1832851;104;25997;-81
2022/06/30 10:04:23;;;;;;;7.12;6.35;;;;;;;37.46;38.99;100046.12;1829283;104;26143;-82
2022/06/30 10:08:26;;;;;;;14.25;6.37;;;;;;;37.47;38.31;100041.92;1760581;109;25902;-81
2022/06/30 10:11:55;;;;;;;10.13;5.72;;;;;;;37.49;37.68;100041.25;1713887;113;26218;-83
2022/06/30 10:15:35;;;;;;;7.37;6.00;;;;;;;37.46;37.60;100036.10;1724721;111;25945;-83
2022/06/30 10:19:08;;;;;;;11.40;6.53;;;;;;;37.41;37.68;100024.78;1689965;113;25792;-87
2022/06/30 10:22:40;;;;;;;7.15;6.58;;;;;;;37.50;37.35;100025.31;1745599;111;25896;-87
2022/06/30 10:27:12;;;;;;;8.28;5.83;;;;;;;37.61;37.34;100026.16;1756848;110;26079;-88
2022/06/30 10:29:56;;;;;;;6.40;5.90;;;;;;;37.60;37.29;100017.61;1766111;110;26094;-86
2022/06/30 10:34:08;;;;;;;;;;;;;;;;;;;;;
2022/06/30 10:37:54;;;;;;;;;;;;;;;;;;;;;
2022/06/30 10:41:31;;;;;;;7.42;5.92;;;;;;;37.95;36.97;100012.90;1666423;116;26500;-86
2022/06/30 10:45:25;;;;;;;14.47;5.75;;;;;;;38.09;36.86;100010.19;1700937;114;26265;-83
2022/06/30 11:13:59;;;;;;;;;;;;;;;;;;;;;
2022/06/30 11:17:55;;;;;;;;;;;;;;;;;;;;;
2022/06/30 11:40:17;;;;;;;8.10;5.78;;;;;;;38.74;34.81;99960.56;1598784;121;25986;-83
2022/06/30 11:56:06;;;;;;;;;;;;;;;;;;;;;
2022/06/30 12:13:21;;;;;;;4.55;4.15;;;;;;;39.15;32.16;99935.03;1647474;117;26047;-84
2022/06/30 12:16:58;;;;;;;;;;;;;;;;;;;;;
2022/06/30 12:20:31;;;;;;;14.47;5.33;;;;;;;38.95;32.70;99930.31;1646118;117;25951;-81
2022/06/30 12:24:22;;;;;;;;;;;;;;;;;;;;;
2022/06/30 12:28:04;;;;;;;4.90;4.50;;;;;;;39.17;32.23;99922.97;1583337;122;26247;-86
2022/06/30 12:31:43;;;;;;;5.10;4.28;;;;;;;38.73;31.88;99923.44;1579353;123;25940;-84
2022/06/30 12:35:29;;;;;;;7.30;4.70;;;;;;;38.94;31.73;99923.98;1617690;120;26120;-84
2022/06/30 12:39:13;;;;;;;5.63;4.20;;;;;;;39.25;31.97;99918.58;1638959;118;26127;-87
2022/06/30 12:42:30;;;;;;;5.70;4.37;;;;;;;39.26;31.93;99921.67;1634500;117;25578;-82
2022/06/30 12:46:28;;;;;;;6.25;4.37;;;;;;;38.94;30.48;99918.53;1581279;123;26101;-83
2022/06/30 12:50:02;;;;;;;5.12;3.87;;;;;;;38.66;31.21;99906.00;1560215;120;26115;-84
2022/06/30 12:53:39;;;;;;;;;;;;;;;;;;;;;
2022/06/30 13:01:38;;;;;;;6.87;4.47;;;;;;;37.87;32.33;99902.06;1634227;118;25983;-87
2022/06/30 13:22:35;;;;;;;;;;;;;;;;;;;;;
2022/06/30 13:25:59;;;;;;;6.30;4.90;;;;;;;39.52;32.00;99905.30;1708783;113;26006;-90
2022/06/30 13:29:24;;;;;;;8.30;4.83;;;;;;;39.39;31.27;99899.80;1712774;112;32538;-85
2022/06/30 13:32:50;;;;;;;11.10;4.55;;;;;;;39.35;30.81;99901.11;1704364;113;26148;-85
2022/06/30 13:36:10;;;;;;;15.50;5.42;;;;;;;39.04;31.50;99893.05;1730905;111;25910;-84
2022/06/30 13:39:50;;;;;;;8.10;4.87;;;;;;;39.08;30.58;99896.65;1723915;113;25975;-87
2022/06/30 13:43:16;;;;;;;9.23;4.40;;;;;;;38.82;32.00;99891.70;1719623;113;25974;-84
2022/06/30 13:46:59;;;;;;;;;;;;;;;;;;;;;
2022/06/30 13:50:45;;;;;;;;;;;;;;;;;;;;;
2022/06/30 13:54:12;;;;;;;11.03;5.28;;;;;;;37.83;31.77;99882.94;1559519;124;25949;-84
2022/06/30 14:04:04;;;;;;;;;;;;;;;;;;;;;
2022/06/30 14:13:29;;;;;;;5.62;5.10;;;;;;;36.72;32.82;99866.88;1585927;123;26059;-84
2022/06/30 14:17:32;;;;;;;5.37;4.97;;;;;;;36.33;33.45;99871.41;1586293;122;25975;-90
2022/06/30 14:21:02;;;;;;;7.80;5.80;;;;;;;35.94;33.93;99861.81;1578847;122;26582;-92
2022/06/30 14:25:21;;;;;;;15.32;5.67;;;;;;;36.04;34.55;99849.66;1616597;119;26080;-83
2022/06/30 14:29:13;;;;;;;6.10;5.50;;;;;;;36.22;34.91;99849.84;1587003;121;26664;-87
2022/06/30 14:32:59;;;;;;;6.62;5.90;;;;;;;36.45;34.88;99851.28;1598640;119;26557;-84
2022/06/30 14:36:45;;;;;;;9.20;5.92;;;;;;;36.63;34.95;99848.22;1614242;119;25865;-86
2022/06/30 14:40:28;;;;;;;14.25;5.60;;;;;;;36.80;34.81;99844.41;1625752;118;25923;-87
2022/06/30 14:44:18;;;;;;;6.50;5.37;;;;;;;36.92;34.76;99840.51;1621049;116;26758;-84
2022/06/30 14:48:02;;;;;;;11.57;5.12;;;;;;;36.98;34.88;99833.67;1626136;118;26021;-83
2022/06/30 14:52:01;;;;;;;;;;;;;;;;;;;;;
2022/06/30 14:55:30;;;;;;;7.17;5.60;;;;;;;36.58;33.91;99830.12;1645819;116;26775;-87
2022/06/30 14:59:16;;;;;;;10.18;5.78;;;;;;;36.42;34.53;99823.06;1668901;116;25853;-84
2022/06/30 15:02:59;;;;;;;5.58;5.15;;;;;;;36.49;34.99;99814.72;1665330;116;26003;-85
2022/06/30 15:06:45;;;;;;;8.50;5.62;;;;;;;36.53;34.72;99810.71;1630028;118;26377;-87
2022/06/30 15:10:11;;;;;;;5.92;5.22;;;;;;;36.33;34.73;99809.83;1621622;116;26248;-85
2022/06/30 15:13:49;;;;;;;11.63;5.92;;;;;;;36.20;36.20;99804.34;1627455;118;26062;-82
2022/06/30 15:17:19;;;;;;;7.45;6.78;;;;;;;36.28;35.89;99803.11;1633632;117;27255;-85
2022/06/30 15:24:39;;;;;;;9.15;5.15;;;;;;;35.86;34.98;99815.05;1621220;118;25607;-83
2022/06/30 15:32:11;;;;;;;10.80;9.70;;;;;;;35.35;35.26;99811.95;1587100;123;25921;-81
2022/06/30 15:35:38;;;;;;;11.28;10.38;;;;;;;35.29;38.17;99806.22;1585402;123;26067;-80
2022/06/30 15:39:09;;;;;;;9.98;9.15;;;;;;;34.92;39.68;99810.28;1587401;123;26646;-80
2022/06/30 15:42:44;;;;;;;8.38;7.30;;;;;;;34.77;39.94;99811.63;1582435;123;25961;-79
2022/06/30 15:46:37;;;;;;;;;;;;;;;;;;;;;
2022/06/30 15:50:22;;;;;;;8.60;7.80;;;;;;;34.70;40.28;99810.45;1561227;124;26662;-79
2022/06/30 15:54:13;;;;;;;13.00;6.05;;;;;;;34.64;40.99;99794.73;1598861;117;26136;-82
2022/06/30 15:57:39;;;;;;;11.05;6.00;;;;;;;34.66;39.82;99805.80;1607568;120;26777;-79
2022/06/30 16:01:07;;;;;;;12.33;5.37;;;;;;;34.60;37.64;99807.67;1658313;107;25756;-79
2022/06/30 16:04:47;;;;;;;9.63;5.55;;;;;;;34.38;37.17;99818.07;1810977;107;26004;-79
2022/06/30 16:08:09;;;;;;;11.53;5.92;;;;;;;34.28;37.48;99828.81;1829935;103;26389;-80
2022/06/30 16:11:44;;;;;;;7.10;5.40;;;;;;;34.32;37.59;99830.77;1820555;104;26145;-80
2022/06/30 16:15:08;;;;;;;12.70;5.55;;;;;;;34.34;37.48;99840.97;1844128;105;25965;-79
2022/06/30 16:18:42;;;;;;;11.65;5.03;;;;;;;34.29;37.10;99845.43;1843643;105;25915;-80
2022/06/30 16:22:14;;;;;;;9.68;5.22;;;;;;;34.11;36.92;99844.75;1801749;105;25884;-79
2022/06/30 16:25:49;;;;;;;6.75;5.15;;;;;;;34.08;37.09;99846.70;1801613;106;25509;-79
2022/06/30 16:29:25;;;;;;;7.28;6.33;;;;;;;34.08;37.44;99849.91;1818075;105;25791;-85
2022/06/30 16:33:01;;;;;;;;;;;;;;;;;;;;;
2022/06/30 16:36:37;;;;;;;6.28;5.25;;;;;;;33.87;40.01;99861.13;1822926;106;26157;-77
2022/06/30 16:40:22;;;;;;;;;;;;;;;;;;;;;
2022/06/30 16:43:39;;;;;;;8.38;5.05;;;;;;;33.59;38.33;99882.30;1799257;106;26106;-82
2022/06/30 16:47:17;;;;;;;8.50;5.42;;;;;;;33.41;38.91;99898.09;1801664;106;26030;-78
2022/06/30 16:50:46;;;;;;;13.85;6.08;;;;;;;32.95;39.07;99894.93;1803582;107;25894;-77
2022/06/30 16:54:28;;;;;;;14.05;5.58;;;;;;;32.66;38.83;99900.71;1796762;107;26027;-76
2022/06/30 16:57:45;;;;;;;12.03;4.60;;;;;;;32.36;38.83;99908.39;1789770;108;25859;-77
2022/06/30 17:01:09;;;;;;;13.93;4.97;;;;;;;31.87;37.67;99903.44;1786046;109;25968;-76
2022/06/30 17:04:30;;;;;;;11.08;4.65;;;;;;;31.57;38.09;99902.92;1841257;106;26329;-76
2022/06/30 17:08:09;;;;;;;14.63;4.33;;;;;;;31.34;38.52;99904.06;1856308;105;25834;-76
2022/06/30 17:11:34;;;;;;;20.20;4.92;;;;;;;31.13;38.78;99899.67;1854569;105;26423;-76
2022/06/30 17:15:04;;;;;;;18.65;4.75;;;;;;;30.91;39.08;99900.76;1846141;104;26072;-77
2022/06/30 17:18:25;;;;;;;16.67;4.70;;;;;;;30.63;39.38;99898.58;1875482;102;25817;-75
2022/06/30 17:21:48;;;;;;;17.33;4.83;;;;;;;30.38;39.90;99896.68;1885221;103;26468;-77
2022/06/30 17:25:14;;;;;;;13.15;4.08;;;;;;;30.14;40.76;99903.16;1875441;103;25984;-75
2022/06/30 17:28:39;;;;;;;8.45;5.83;;;;;;;29.95;40.97;99904.83;1892365;102;25859;-77
2022/06/30 17:32:00;;;;;;;13.10;4.92;;;;;;;29.82;41.38;99896.68;1896207;102;26666;-74
2022/06/30 17:35:25;;;;;;;11.70;4.27;;;;;;;29.68;41.75;99883.75;1899661;101;26432;-76
2022/06/30 17:38:48;;;;;;;16.20;4.10;;;;;;;29.49;42.15;99870.09;1896040;102;25777;-76
2022/06/30 17:42:11;;;;;;;11.40;4.20;;;;;;;29.37;42.63;99865.52;1885129;102;25863;-77
2022/06/30 17:45:32;;;;;;;9.88;4.37;;;;;;;29.16;43.08;99868.58;1889840;103;26037;-76
2022/06/30 17:48:53;;;;;;;12.25;5.17;;;;;;;29.09;43.21;99855.61;1892934;102;25905;-75
2022/06/30 17:52:13;;;;;;;5.95;3.62;;;;;;;29.00;43.30;99836.92;1869941;104;25832;-76
2022/06/30 17:55:43;;;;;;;12.55;5.00;;;;;;;28.97;42.62;99830.38;1871248;104;25859;-79
2022/06/30 17:59:26;;;;;;;18.27;4.08;;;;;;;28.97;42.43;99854.52;1872698;103;26170;-76
2022/06/30 18:02:52;;;;;;;18.23;3.70;;;;;;;28.89;42.19;99850.97;1849003;105;33008;-77
2022/06/30 18:13:50;;;;;;;6.05;3.15;;;;;;;28.83;41.16;99859.87;1846828;105;25953;-78
2022/06/30 18:17:14;;;;;;;10.60;3.15;;;;;;;28.75;40.39;99862.13;1829321;105;26046;-76
2022/06/30 18:20:46;;;;;;;6.53;2.87;;;;;;;28.68;39.78;99858.47;1832125;104;26459;-76
2022/06/30 18:24:10;;;;;;;6.78;2.85;;;;;;;28.65;39.76;99856.00;1838142;105;26011;-78
2022/06/30 18:27:38;;;;;;;6.12;2.77;;;;;;;28.61;39.45;99845.04;1844735;106;26418;-79
2022/06/30 18:31:16;;;;;;;6.90;2.65;;;;;;;28.57;39.38;99858.25;1838723;105;26773;-83
2022/06/30 18:34:51;;;;;;;6.35;2.10;;;;;;;28.60;39.04;99858.56;1835659;105;26137;-82
2022/06/30 18:38:27;;;;;;;7.53;2.17;;;;;;;28.61;38.92;99855.77;1824780;105;25883;-82
2022/06/30 18:41:52;;;;;;;10.53;1.82;;;;;;;28.64;38.55;99852.05;1849941;106;25894;-81
2022/06/30 18:45:32;;;;;;;13.95;2.80;;;;;;;28.73;38.23;99851.99;1871217;103;26503;-79
2022/06/30 18:48:49;;;;;;;8.75;2.37;;;;;;;28.87;38.05;99852.88;1864703;104;25766;-81
2022/06/30 18:52:32;;;;;;;7.08;2.35;;;;;;;28.98;37.88;99850.88;1858667;104;26284;-80
2022/06/30 18:59:41;;;;;;;4.78;2.45;;;;;;;29.09;37.07;99836.37;1861856;104;25850;-79
2022/06/30 19:03:53;;;;;;;10.82;3.77;;;;;;;29.07;37.41;99831.56;1869559;103;26272;-82
2022/06/30 19:07:18;;;;;;;5.90;1.92;;;;;;;29.02;36.83;99832.79;1857322;103;25774;-81
2022/06/30 19:10:52;;;;;;;6.22;1.85;;;;;;;28.97;36.85;99837.56;1845379;104;25813;-83
2022/06/30 19:14:37;;;;;;;4.20;1.92;;;;;;;28.92;36.78;99826.64;1843503;104;26116;-80
2022/06/30 19:18:05;;;;;;;4.33;1.75;;;;;;;28.89;37.08;99829.95;1850937;104;25862;-81
2022/06/30 19:21:44;;;;;;;4.80;1.77;;;;;;;28.93;36.88;99827.50;1823390;105;25993;-81
2022/06/30 19:25:13;;;;;;;6.42;1.80;;;;;;;28.78;37.04;99834.64;1820941;105;26809;-78
2022/06/30 19:28:48;;;;;;;8.55;1.90;;;;;;;28.69;37.13;99825.83;1861675;103;25821;-82
2022/06/30 19:32:28;;;;;;;10.32;1.85;;;;;;;28.71;37.14;99823.90;1867689;100;25806;-77
2022/06/30 19:35:43;;;;;;;4.67;1.98;;;;;;;28.65;37.10;99818.45;1907355;101;25966;-77
2022/06/30 19:39:10;;;;;;;7.90;1.82;;;;;;;28.57;37.24;99822.05;1912870;101;26030;-82
2022/06/30 19:42:42;;;;;;;4.95;2.12;;;;;;;28.52;37.30;99821.48;1888516;101;45514;-76
2022/06/30 19:46:11;;;;;;;8.40;1.85;;;;;;;28.43;37.42;99822.02;1902696;101;26078;-80
2022/06/30 19:49:43;;;;;;;9.68;1.85;;;;;;;28.28;37.79;99825.55;1904189;102;25420;-77
2022/06/30 19:53:40;;;;;;;8.20;2.30;;;;;;;28.23;38.01;99832.05;1864326;102;25817;-77
2022/06/30 19:57:03;;;;;;;6.42;2.02;;;;;;;28.15;38.17;99831.65;1923286;101;26051;-79
2022/06/30 20:00:31;;;;;;;12.70;1.70;;;;;;;28.12;38.23;99823.78;1919189;96;25770;-77
2022/06/30 20:11:29;;;;;;;7.75;1.10;;;;;;;27.99;38.25;99826.30;1942837;97;25650;-75
2022/06/30 20:14:50;;;;;;;8.63;2.00;;;;;;;27.93;38.16;99829.32;2018100;96;25866;-75
2022/06/30 20:18:19;;;;;;;8.73;1.60;;;;;;;27.92;38.19;99825.41;2002649;95;26106;-75
2022/06/30 20:21:41;;;;;;;5.20;1.20;;;;;;;27.92;38.07;99828.95;1998205;98;25764;-77
2022/06/30 20:25:09;;;;;;;3.30;1.35;;;;;;;27.93;37.85;99823.11;2001596;97;25846;-73
2022/06/30 20:28:32;;;;;;;6.72;1.07;;;;;;;27.96;37.85;99822.45;2074228;92;25897;-76
2022/06/30 20:31:58;;;;;;;5.87;1.27;;;;;;;28.04;37.62;99825.16;2076383;91;25687;-75
2022/06/30 20:35:36;;;;;;;3.37;1.77;;;;;;;28.01;37.38;99832.45;2075253;92;26039;-79
2022/06/30 20:39:09;;;;;;;4.58;1.10;;;;;;;28.01;37.30;99829.77;1923288;99;26013;-80
2022/06/30 20:42:42;;;;;;;4.97;1.10;;;;;;;28.04;36.92;99832.72;1920217;100;25703;-81
2022/06/30 20:46:10;;;;;;;4.33;1.72;;;;;;;28.02;36.93;99833.30;1911369;99;25908;-75
2022/06/30 20:53:38;;;;;;;3.02;1.35;;;;;;;28.00;36.56;99829.36;1857762;103;25940;-80
2022/06/30 20:57:23;;;;;;;4.58;1.30;;;;;;;28.05;36.70;99833.61;1877353;103;25460;-80
2022/06/30 21:00:55;;;;;;;;;;;;;;;;;;;;;
2022/06/30 21:04:25;;;;;;;6.35;1.70;;;;;;;28.05;36.33;99829.59;1873005;103;26155;-78
2022/06/30 21:08:07;;;;;;;7.28;1.80;;;;;;;28.01;36.34;99821.73;1866911;103;25858;-80
2022/06/30 21:12:14;;;;;;;;;;;;;;;;;;;;;
2022/06/30 21:16:15;;;;;;;4.83;1.65;;;;;;;28.03;36.08;99842.20;1908213;96;25987;-82
2022/06/30 21:19:53;;;;;;;4.87;1.40;;;;;;;28.01;36.00;99842.27;2001020;96;26512;-82
2022/06/30 21:23:32;;;;;;;3.50;1.65;;;;;;;28.00;35.87;99843.23;1989682;97;25869;-83
2022/06/30 21:27:05;;;;;;;9.30;1.77;;;;;;;28.03;35.90;99845.74;1979136;97;26242;-84
2022/06/30 21:30:33;;;;;;;5.90;2.25;;;;;;;28.00;35.82;99846.77;1980545;97;26347;-78
2022/06/30 21:34:04;;;;;;;4.22;1.32;;;;;;;28.04;35.86;99854.64;1995181;96;25918;-77